createdAt,value
2023-05-19T00:01:49.817Z,102810.66
2023-05-19T00:04:16.980Z,102812.19
2023-05-19T00:06:48.306Z,102805.34
2023-05-19T00:09:14.998Z,102809.13
2023-05-19T00:11:41.682Z,102811.38
2023-05-19T00:14:09.881Z,102806.06
2023-05-19T00:16:38.018Z,102807.94
2023-05-19T00:19:06.446Z,102794.66
2023-05-19T00:21:33.059Z,102788.22
2023-05-19T00:23:59.609Z,102800.72
2023-05-19T00:26:27.446Z,102796.16
2023-05-19T00:28:59.448Z,102790.09
2023-05-19T00:31:26.106Z,102793.47
2023-05-19T00:33:52.600Z,102790.03
2023-05-19T00:36:19.042Z,102790.00
2023-05-19T00:38:45.563Z,102788.84
2023-05-19T00:41:12.246Z,102793.38
2023-05-19T00:43:38.945Z,102787.31
2023-05-19T00:46:07.151Z,102786.91
2023-05-19T00:48:33.750Z,102791.44
2023-05-19T00:51:04.862Z,102790.28
2023-05-19T00:53:33.366Z,102790.28
2023-05-19T00:56:00.848Z,102784.97
2023-05-19T00:58:30.250Z,102789.50
2023-05-19T01:01:03.831Z,102789.88
2023-05-19T01:03:35.964Z,102785.28
2023-05-19T01:06:05.916Z,102789.81
2023-05-19T01:08:39.124Z,102789.03
2023-05-19T01:11:06.945Z,102787.88
2023-05-19T01:13:34.932Z,102793.16
2023-05-19T01:16:12.648Z,102791.25
2023-05-19T01:19:15.338Z,102791.97
2023-05-19T01:22:12.969Z,102791.19
2023-05-19T01:25:17.830Z,102799.16
2023-05-19T01:27:59.585Z,102790.44
2023-05-19T01:30:42.616Z,102787.41
2023-05-19T01:33:14.206Z,102784.72
2023-05-19T01:35:43.019Z,102784.69
2023-05-19T01:38:11.073Z,102778.25
2023-05-19T01:40:41.834Z,102772.53
2023-05-19T01:43:12.449Z,102776.69
2023-05-19T01:45:40.192Z,102772.88
2023-05-19T01:48:09.942Z,102766.44
2023-05-19T01:50:38.642Z,102772.09
2023-05-19T01:53:05.490Z,102772.44
2023-05-19T01:55:41.038Z,102768.63
2023-05-19T01:58:43.957Z,102762.94
2023-05-19T02:01:28.860Z,102759.50
2023-05-19T02:04:25.381Z,102756.09
2023-05-19T02:07:13.479Z,102758.69
2023-05-19T02:09:56.147Z,102764.72
2023-05-19T02:12:32.536Z,102761.69
2023-05-19T02:15:19.400Z,102772.25
2023-05-19T02:17:48.445Z,102766.91
2023-05-19T02:20:16.139Z,102768.41
2023-05-19T02:22:42.962Z,102762.34
2023-05-19T02:25:10.606Z,102764.97
2023-05-19T02:27:38.662Z,102756.63
2023-05-19T02:30:08.336Z,102757.75
2023-05-19T02:32:36.638Z,102758.47
2023-05-19T02:35:03.946Z,102756.53
2023-05-19T02:37:31.148Z,102746.69
2023-05-19T02:39:57.965Z,102754.22
2023-05-19T02:42:24.489Z,102748.94
2023-05-19T02:44:51.558Z,102748.53
2023-05-19T02:47:18.089Z,102744.34
2023-05-19T02:49:45.065Z,102742.06
2023-05-19T02:52:12.168Z,102736.38
2023-05-19T02:54:39.326Z,102740.50
2023-05-19T02:57:06.757Z,102744.66
2023-05-19T02:59:33.442Z,102736.72
2023-05-19T03:02:02.095Z,102734.78
2023-05-19T03:04:29.838Z,102734.38
2023-05-19T03:06:57.648Z,102732.88
2023-05-19T03:09:24.306Z,102729.41
2023-05-19T03:11:51.000Z,102724.50
2023-05-19T03:14:18.635Z,102721.03
2023-05-19T03:16:45.552Z,102724.81
2023-05-19T03:19:12.551Z,102727.47
2023-05-19T03:21:39.230Z,102728.59
2023-05-19T03:24:06.671Z,102729.69
2023-05-19T03:26:33.834Z,102729.69
2023-05-19T03:29:00.874Z,102726.66
2023-05-19T03:31:27.368Z,102728.13
2023-05-19T03:33:54.186Z,102730.03
2023-05-19T03:36:22.185Z,102725.84
2023-05-19T03:38:49.077Z,102730.78
2023-05-19T03:41:15.870Z,102729.25
2023-05-19T03:43:42.549Z,102718.66
2023-05-19T03:46:10.121Z,102723.56
2023-05-19T03:49:08.946Z,102713.75
2023-05-19T03:52:03.299Z,102716.75
2023-05-19T03:54:48.964Z,102724.31
2023-05-19T03:57:15.554Z,102721.31
2023-05-19T03:59:42.100Z,102723.59
2023-05-19T04:02:08.681Z,102724.72
2023-05-19T04:04:35.672Z,102730.03
2023-05-19T04:07:02.349Z,102728.91
2023-05-19T04:09:28.878Z,102730.06
2023-05-19T04:11:55.434Z,102723.66
2023-05-19T04:14:24.599Z,102726.69
2023-05-19T04:16:51.259Z,102725.97
2023-05-19T04:19:18.029Z,102731.31
2023-05-19T04:21:44.585Z,102731.34
2023-05-19T04:24:11.155Z,102729.84
2023-05-19T04:26:38.421Z,102733.66
2023-05-19T04:29:05.307Z,102740.91
2023-05-19T04:31:34.234Z,102736.41
2023-05-19T04:34:03.392Z,102730.78
2023-05-19T04:36:29.869Z,102742.91
2023-05-19T04:39:06.849Z,102733.63
2023-05-19T04:41:34.677Z,102734.84
2023-05-19T04:44:03.867Z,102734.84
2023-05-19T04:46:30.494Z,102732.94
2023-05-19T04:48:57.345Z,102736.72
2023-05-19T04:51:30.262Z,102743.91
2023-05-19T04:53:59.817Z,102744.16
2023-05-19T04:56:27.318Z,102738.50
2023-05-19T04:58:53.942Z,102743.38
2023-05-19T05:01:25.796Z,102745.63
2023-05-19T05:03:55.340Z,102745.34
2023-05-19T05:06:22.375Z,102752.03
2023-05-19T05:08:49.543Z,102750.63
2023-05-19T05:11:17.390Z,102750.41
2023-05-19T05:13:44.445Z,102750.28
2023-05-19T05:16:11.997Z,102750.69
2023-05-19T05:18:39.321Z,102762.06
2023-05-19T05:21:07.497Z,102758.38
2023-05-19T05:23:35.426Z,102755.22
2023-05-19T05:26:16.759Z,102758.31
2023-05-19T05:28:45.217Z,102758.63
2023-05-19T05:31:11.827Z,102755.78
2023-05-19T05:33:39.452Z,102753.44
2023-05-19T05:36:06.661Z,102759.59
2023-05-19T05:38:33.973Z,102755.59
2023-05-19T05:41:00.956Z,102748.63
2023-05-19T05:43:27.680Z,102747.00
2023-05-19T05:45:58.559Z,102753.66
2023-05-19T05:48:27.588Z,102759.03
2023-05-19T05:50:56.562Z,102761.44
2023-05-19T05:53:29.136Z,102759.97
2023-05-19T05:55:56.098Z,102761.91
2023-05-19T05:58:28.571Z,102759.66
2023-05-19T06:00:57.663Z,102762.25
2023-05-19T06:03:26.082Z,102748.00
2023-05-19T06:05:53.892Z,102755.75
2023-05-19T06:08:20.558Z,102757.44
2023-05-19T06:10:47.487Z,102757.63
2023-05-19T06:13:18.700Z,102764.13
2023-05-19T06:15:46.002Z,102765.88
2023-05-19T06:18:20.256Z,102757.09
2023-05-19T06:20:48.124Z,102769.53
2023-05-19T06:23:14.911Z,102761.41
2023-05-19T06:25:41.586Z,102754.72
2023-05-19T06:28:08.126Z,102759.66
2023-05-19T06:30:34.909Z,102749.53
2023-05-19T06:33:11.823Z,102761.38
2023-05-19T06:35:38.374Z,102753.53
2023-05-19T06:38:04.888Z,102745.34
2023-05-19T06:40:32.596Z,102750.97
2023-05-19T06:42:59.280Z,102745.03
2023-05-19T06:45:40.585Z,102751.16
2023-05-19T06:48:07.473Z,102755.47
2023-05-19T06:50:34.893Z,102753.53
2023-05-19T06:53:01.721Z,102759.22
2023-05-19T06:55:29.232Z,102755.56
2023-05-19T06:57:56.029Z,102762.63
2023-05-19T07:00:24.001Z,102760.38
2023-05-19T07:02:52.615Z,102755.84
2023-05-19T07:05:19.493Z,102755.91
2023-05-19T07:07:50.861Z,102753.97
2023-05-19T07:10:21.938Z,102754.75
2023-05-19T07:12:49.767Z,102758.63
2023-05-19T07:15:18.261Z,102754.88
2023-05-19T07:17:44.901Z,102749.28
2023-05-19T07:20:12.061Z,102751.28
2023-05-19T07:22:39.993Z,102751.13
2023-05-19T07:25:08.054Z,102752.34
2023-05-19T07:27:34.689Z,102756.66
2023-05-19T07:30:01.203Z,102749.63
2023-05-19T07:32:29.443Z,102756.56
2023-05-19T07:34:56.064Z,102746.25
2023-05-19T07:37:22.559Z,102751.44
2023-05-19T07:39:49.135Z,102756.19
2023-05-19T07:42:15.713Z,102753.44
2023-05-19T07:44:42.188Z,102752.63
2023-05-19T07:47:08.760Z,102748.00
2023-05-19T07:49:35.424Z,102750.75
2023-05-19T07:52:01.953Z,102754.06
2023-05-19T07:54:28.560Z,102747.19
2023-05-19T07:56:55.117Z,102744.97
2023-05-19T07:59:21.678Z,102746.84
2023-05-19T08:01:48.175Z,102740.13
2023-05-19T08:04:14.788Z,102743.41
2023-05-19T08:06:42.759Z,102738.22
2023-05-19T08:09:09.811Z,102731.84
2023-05-19T08:11:36.952Z,102733.69
2023-05-19T08:14:03.811Z,102735.25
2023-05-19T08:16:30.522Z,102736.00
2023-05-19T08:18:57.171Z,102738.09
2023-05-19T08:21:23.785Z,102733.22
2023-05-19T08:23:50.470Z,102732.56
2023-05-19T08:26:16.950Z,102722.41
2023-05-19T08:28:44.202Z,102729.91
2023-05-19T08:31:10.940Z,102715.44
2023-05-19T08:33:37.482Z,102719.16
2023-05-19T08:36:04.570Z,102717.00
2023-05-19T08:38:31.055Z,102702.41
2023-05-19T08:40:58.647Z,102712.94
2023-05-19T08:43:25.628Z,102712.53
2023-05-19T08:45:53.977Z,102705.13
2023-05-19T08:48:22.017Z,102702.91
2023-05-19T08:51:10.917Z,102704.88
2023-05-19T08:53:41.043Z,102700.94
2023-05-19T08:56:18.118Z,102696.91
2023-05-19T08:58:45.892Z,102686.41
2023-05-19T09:01:18.752Z,102688.47
2023-05-19T09:03:47.031Z,102688.06
2023-05-19T09:06:13.671Z,102696.09
2023-05-19T09:08:42.059Z,102688.03
2023-05-19T09:11:12.029Z,102689.44
2023-05-19T09:13:39.125Z,102678.09
2023-05-19T09:16:06.550Z,102676.72
2023-05-19T09:18:33.416Z,102683.09
2023-05-19T09:21:02.609Z,102680.09
2023-05-19T09:23:34.534Z,102691.03
2023-05-19T09:26:07.582Z,102685.53
2023-05-19T09:28:36.325Z,102675.63
2023-05-19T09:31:05.503Z,102683.19
2023-05-19T09:33:39.729Z,102684.91
2023-05-19T09:36:08.523Z,102683.19
2023-05-19T09:38:36.374Z,102677.78
2023-05-19T09:41:03.630Z,102683.19
2023-05-19T09:43:32.845Z,102684.19
2023-05-19T09:46:04.144Z,102675.13
2023-05-19T09:48:30.736Z,102665.41
2023-05-19T09:50:58.196Z,102676.69
2023-05-19T09:53:27.739Z,102668.00
2023-05-19T09:56:01.874Z,102674.50
2023-05-19T09:58:35.323Z,102669.66
2023-05-19T10:01:03.251Z,102663.31
2023-05-19T10:03:30.909Z,102668.56
2023-05-19T10:05:57.743Z,102672.00
2023-05-19T10:08:26.437Z,102672.63
2023-05-19T10:10:52.976Z,102667.59
2023-05-19T10:13:21.240Z,102664.38
2023-05-19T10:15:58.359Z,102657.75
2023-05-19T10:18:26.957Z,102657.47
2023-05-19T10:20:54.272Z,102653.16
2023-05-19T10:23:21.024Z,102652.78
2023-05-19T10:25:49.356Z,102645.59
2023-05-19T10:28:20.358Z,102647.75
2023-05-19T10:30:50.877Z,102644.66
2023-05-19T10:33:19.688Z,102647.56
2023-05-19T10:36:11.053Z,102643.66
2023-05-19T10:38:38.580Z,102641.81
2023-05-19T10:41:12.864Z,102632.97
2023-05-19T10:44:01.438Z,102641.31
2023-05-19T10:46:29.535Z,102633.50
2023-05-19T10:48:56.160Z,102634.69
2023-05-19T10:51:31.810Z,102629.19
2023-05-19T10:53:58.965Z,102634.63
2023-05-19T10:56:30.405Z,102630.09
2023-05-19T10:58:57.211Z,102632.22
2023-05-19T11:01:31.030Z,102632.88
2023-05-19T11:03:57.897Z,102624.56
2023-05-19T11:06:32.941Z,102625.28
2023-05-19T11:09:02.145Z,102624.75
2023-05-19T11:11:48.302Z,102622.91
2023-05-19T11:14:20.552Z,102623.56
2023-05-19T11:16:48.728Z,102619.84
2023-05-19T11:19:36.122Z,102608.34
2023-05-19T11:22:13.382Z,102617.00
2023-05-19T11:24:49.996Z,102617.75
2023-05-19T11:27:19.182Z,102618.06
2023-05-19T11:29:46.598Z,102611.78
2023-05-19T11:32:14.081Z,102604.41
2023-05-19T11:34:41.004Z,102600.53
2023-05-19T11:37:08.446Z,102609.72
2023-05-19T11:39:35.153Z,102602.59
2023-05-19T11:42:01.669Z,102599.63
2023-05-19T11:44:28.235Z,102597.34
2023-05-19T11:46:54.852Z,102597.31
2023-05-19T11:49:21.560Z,102603.19
2023-05-19T11:51:48.408Z,102599.34
2023-05-19T11:54:15.344Z,102592.38
2023-05-19T11:56:42.867Z,102586.31
2023-05-19T11:59:10.002Z,102582.16
2023-05-19T12:01:36.863Z,102571.72
2023-05-19T12:04:08.537Z,102582.34
2023-05-19T12:06:35.226Z,102586.78
2023-05-19T12:09:01.938Z,102591.41
2023-05-19T12:11:29.113Z,102582.13
2023-05-19T12:13:59.175Z,102593.06
2023-05-19T12:16:34.244Z,102586.81
2023-05-19T12:19:01.831Z,102598.06
2023-05-19T12:21:34.257Z,102581.78
2023-05-19T12:24:02.035Z,102589.59
2023-05-19T12:26:28.582Z,102586.53
2023-05-19T12:28:55.105Z,102581.19
2023-05-19T12:31:23.683Z,102577.88
2023-05-19T12:33:51.929Z,102574.94
2023-05-19T12:36:19.011Z,102574.22
2023-05-19T12:38:47.631Z,102559.44
2023-05-19T12:41:14.738Z,102558.66
2023-05-19T12:43:41.196Z,102559.91
2023-05-19T12:46:11.989Z,102557.72
2023-05-19T12:48:44.257Z,102551.72
2023-05-19T12:51:11.488Z,102556.56
2023-05-19T12:53:38.665Z,102557.56
2023-05-19T12:56:15.451Z,102552.50
2023-05-19T12:58:42.491Z,102548.00
2023-05-19T13:01:16.596Z,102544.16
2023-05-19T13:03:43.819Z,102551.06
2023-05-19T13:06:10.666Z,102553.38
2023-05-19T13:08:39.646Z,102543.97
2023-05-19T13:11:06.141Z,102536.19
2023-05-19T13:13:32.822Z,102546.88
2023-05-19T13:15:59.462Z,102547.22
2023-05-19T13:18:27.561Z,102545.06
2023-05-19T13:20:54.667Z,102549.88
2023-05-19T13:23:21.182Z,102548.31
2023-05-19T13:25:47.762Z,102541.59
2023-05-19T13:28:14.377Z,102537.75
2023-05-19T13:30:41.824Z,102534.00
2023-05-19T13:33:08.699Z,102528.13
2023-05-19T13:35:38.291Z,102523.38
2023-05-19T13:38:11.867Z,102522.56
2023-05-19T13:40:39.437Z,102526.84
2023-05-19T13:43:06.221Z,102515.25
2023-05-19T13:45:32.883Z,102520.88
2023-05-19T13:47:59.565Z,102516.59
2023-05-19T13:50:26.436Z,102514.59
2023-05-19T13:52:53.694Z,102512.47
2023-05-19T13:55:20.480Z,102508.94
2023-05-19T13:57:47.054Z,102502.53
2023-05-19T14:00:14.417Z,102510.47
2023-05-19T14:02:41.148Z,102506.06
2023-05-19T14:05:08.463Z,102505.81
2023-05-19T14:07:35.706Z,102497.47
2023-05-19T14:10:05.490Z,102502.44
2023-05-19T14:12:40.409Z,102502.53
2023-05-19T14:15:14.106Z,102500.94
2023-05-19T14:17:40.823Z,102504.31
2023-05-19T14:20:08.387Z,102496.84
2023-05-19T14:22:35.335Z,102498.91
2023-05-19T14:25:02.153Z,102492.56
2023-05-19T14:27:28.616Z,102500.19
2023-05-19T14:29:55.237Z,102489.66
2023-05-19T14:32:22.366Z,102480.47
2023-05-19T14:34:52.663Z,102483.28
2023-05-19T14:37:20.163Z,102488.06
2023-05-19T14:39:46.670Z,102482.56
2023-05-19T14:42:13.396Z,102482.00
2023-05-19T14:44:39.919Z,102474.63
2023-05-19T14:49:33.761Z,102470.91
2023-05-19T14:52:00.511Z,102472.63
2023-05-19T14:54:26.994Z,102468.44
2023-05-19T14:56:53.510Z,102469.19
2023-05-19T14:59:21.498Z,102472.56
2023-05-19T15:01:48.088Z,102471.69
2023-05-19T15:04:14.824Z,102466.09
2023-05-19T15:06:41.575Z,102458.53
2023-05-19T15:09:08.160Z,102473.38
2023-05-19T15:11:34.671Z,102469.63
2023-05-19T15:14:01.220Z,102469.16
2023-05-19T15:16:27.810Z,102468.13
2023-05-19T15:18:54.756Z,102464.69
2023-05-19T15:21:21.326Z,102459.09
2023-05-19T15:23:47.777Z,102460.63
2023-05-19T15:26:14.253Z,102449.06
2023-05-19T15:28:40.973Z,102459.16
2023-05-19T15:31:07.549Z,102467.34
2023-05-19T15:33:34.168Z,102453.28
2023-05-19T15:36:00.646Z,102458.41
2023-05-19T15:38:28.494Z,102455.25
2023-05-19T15:40:56.460Z,102453.34
2023-05-19T15:43:22.925Z,102444.03
2023-05-19T15:45:52.060Z,102449.09
2023-05-19T15:48:18.776Z,102455.69
2023-05-19T15:50:45.834Z,102444.44
2023-05-19T15:53:12.430Z,102439.84
2023-05-19T15:55:38.886Z,102450.75
2023-05-19T15:58:05.757Z,102448.50
2023-05-19T16:00:32.638Z,102440.78
2023-05-19T16:02:59.530Z,102431.63
2023-05-19T16:05:26.279Z,102439.47
2023-05-19T16:07:52.732Z,102433.84
2023-05-19T16:10:19.316Z,102437.78
2023-05-19T16:12:46.018Z,102433.41
2023-05-19T16:15:12.548Z,102438.63
2023-05-19T16:17:39.114Z,102428.91
2023-05-19T16:20:06.471Z,102422.00
2023-05-19T16:22:33.060Z,102414.47
2023-05-19T16:24:59.541Z,102415.59
2023-05-19T16:27:26.170Z,102420.44
2023-05-19T16:29:53.154Z,102422.50
2023-05-19T16:32:19.680Z,102409.91
2023-05-19T16:34:46.405Z,102409.06
2023-05-19T16:37:12.907Z,102405.25
2023-05-19T16:39:40.153Z,102405.88
2023-05-19T16:42:06.803Z,102418.84
2023-05-19T16:44:33.279Z,102421.94
2023-05-19T16:46:59.774Z,102415.75
2023-05-19T16:49:26.275Z,102420.25
2023-05-19T16:51:54.056Z,102415.72
2023-05-19T16:54:21.240Z,102429.41
2023-05-19T16:56:47.875Z,102419.91
2023-05-19T16:59:14.385Z,102426.91
2023-05-19T17:01:40.939Z,102416.88
2023-05-19T17:04:07.517Z,102419.50
2023-05-19T17:06:34.186Z,102409.63
2023-05-19T17:09:00.818Z,102413.53
2023-05-19T17:11:27.607Z,102407.56
2023-05-19T17:13:54.198Z,102419.66
2023-05-19T17:16:21.256Z,102426.19
2023-05-19T17:18:48.099Z,102427.06
2023-05-19T17:21:14.762Z,102421.00
2023-05-19T17:23:41.514Z,102413.03
2023-05-19T17:26:08.761Z,102424.00
2023-05-19T17:28:35.314Z,102418.59
2023-05-19T17:31:01.790Z,102425.38
2023-05-19T17:33:28.288Z,102427.44
2023-05-19T17:35:55.236Z,102421.75
2023-05-19T17:38:21.749Z,102419.69
2023-05-19T17:40:48.388Z,102418.41
2023-05-19T17:43:14.934Z,102417.38
2023-05-19T17:45:41.454Z,102421.13
2023-05-19T17:48:08.009Z,102418.03
2023-05-19T17:50:34.681Z,102430.84
2023-05-19T17:53:01.621Z,102424.59
2023-05-19T17:55:30.315Z,102424.00
2023-05-19T17:57:57.570Z,102422.78
2023-05-19T18:00:25.241Z,102424.00
2023-05-19T18:02:52.461Z,102429.31
2023-05-19T18:05:19.775Z,102432.50
2023-05-19T18:07:46.328Z,102420.56
2023-05-19T18:10:15.408Z,102428.81
2023-05-19T18:12:42.928Z,102432.28
2023-05-19T18:15:09.839Z,102431.16
2023-05-19T18:17:36.364Z,102433.13
2023-05-19T18:20:03.234Z,102437.31
2023-05-19T18:22:29.974Z,102440.03
2023-05-19T18:24:57.628Z,102433.91
2023-05-19T18:27:24.248Z,102436.19
2023-05-19T18:29:50.928Z,102440.38
2023-05-19T18:32:17.940Z,102439.19
2023-05-19T18:34:44.497Z,102444.13
2023-05-19T18:37:10.998Z,102445.94
2023-05-19T18:39:37.503Z,102444.63
2023-05-19T18:42:04.364Z,102452.09
2023-05-19T18:44:31.070Z,102447.44
2023-05-19T18:46:57.616Z,102448.50
2023-05-19T18:49:24.953Z,102451.34
2023-05-19T18:51:51.823Z,102464.34
2023-05-19T18:54:19.402Z,102459.97
2023-05-19T18:56:45.915Z,102457.88
2023-05-19T18:59:12.456Z,102461.16
2023-05-19T19:01:39.068Z,102464.44
2023-05-19T19:04:05.844Z,102464.72
2023-05-19T19:06:32.484Z,102458.84
2023-05-19T19:08:59.067Z,102460.63
2023-05-19T19:11:26.275Z,102464.81
2023-05-19T19:13:55.400Z,102468.53
2023-05-19T19:16:22.463Z,102458.34
2023-05-19T19:18:49.116Z,102463.25
2023-05-19T19:21:15.662Z,102468.00
2023-05-19T19:23:42.166Z,102472.44
2023-05-19T19:26:09.499Z,102474.53
2023-05-19T19:28:36.373Z,102482.44
2023-05-19T19:31:03.045Z,102479.25
2023-05-19T19:33:29.583Z,102483.69
2023-05-19T19:35:56.352Z,102480.03
2023-05-19T19:38:22.854Z,102486.41
2023-05-19T19:40:51.521Z,102482.78
2023-05-19T19:43:18.274Z,102487.22
2023-05-19T19:45:44.873Z,102496.31
2023-05-19T19:48:12.191Z,102491.28
2023-05-19T19:50:38.753Z,102500.66
2023-05-19T19:53:05.533Z,102503.16
2023-05-19T19:55:32.093Z,102503.50
2023-05-19T19:57:58.649Z,102504.19
2023-05-19T20:00:25.160Z,102510.22
2023-05-19T20:03:04.225Z,102522.25
2023-05-19T20:05:32.354Z,102517.53
2023-05-19T20:07:58.995Z,102515.38
2023-05-19T20:10:25.492Z,102520.53
2023-05-19T20:12:52.267Z,102514.97
2023-05-19T20:15:19.173Z,102516.25
2023-05-19T20:17:45.743Z,102517.53
2023-05-19T20:20:12.712Z,102520.44
2023-05-19T20:22:39.815Z,102521.72
2023-05-19T20:25:06.930Z,102523.84
2023-05-19T20:27:33.505Z,102522.13
2023-05-19T20:30:00.077Z,102527.31
2023-05-19T20:32:26.689Z,102525.16
2023-05-19T20:34:53.249Z,102536.41
2023-05-19T20:37:21.414Z,102531.88
2023-05-19T20:39:47.995Z,102535.09
2023-05-19T20:42:14.560Z,102541.31
2023-05-19T20:44:41.452Z,102538.41
2023-05-19T20:47:08.363Z,102545.03
2023-05-19T20:49:35.183Z,102549.75
2023-05-19T20:52:02.191Z,102551.78
2023-05-19T20:54:28.755Z,102543.50
2023-05-19T20:56:55.420Z,102553.16
2023-05-19T20:59:22.007Z,102549.47
2023-05-19T21:01:48.685Z,102548.47
2023-05-19T21:04:15.399Z,102546.66
2023-05-19T21:06:41.962Z,102548.75
2023-05-19T21:09:08.729Z,102546.59
2023-05-19T21:11:35.450Z,102551.28
2023-05-19T21:14:04.078Z,102552.13
2023-05-19T21:16:31.327Z,102552.19
2023-05-19T21:18:58.077Z,102553.03
2023-05-19T21:21:24.794Z,102552.38
2023-05-19T21:23:51.581Z,102554.81
2023-05-19T21:26:18.097Z,102556.06
2023-05-19T21:28:44.729Z,102562.69
2023-05-19T21:31:11.216Z,102563.50
2023-05-19T21:33:37.764Z,102559.44
2023-05-19T21:36:04.533Z,102573.31
2023-05-19T21:38:31.120Z,102565.38
2023-05-19T21:40:57.763Z,102563.94
2023-05-19T21:43:24.478Z,102573.22
2023-05-19T21:45:50.962Z,102573.72
2023-05-19T21:48:17.749Z,102577.97
2023-05-19T21:50:44.318Z,102576.13
2023-05-19T21:53:10.853Z,102570.84
2023-05-19T21:55:37.416Z,102572.84
2023-05-19T21:58:04.002Z,102578.63
2023-05-19T22:00:30.541Z,102580.66
2023-05-19T22:02:57.160Z,102581.13
2023-05-19T22:05:23.655Z,102575.09
2023-05-19T22:07:50.119Z,102575.53
2023-05-19T22:10:17.322Z,102572.16
2023-05-19T22:12:44.552Z,102574.16
2023-05-19T22:15:13.518Z,102570.38
2023-05-19T22:17:40.203Z,102573.13
2023-05-19T22:20:07.226Z,102579.31
2023-05-19T22:22:34.065Z,102577.44
2023-05-19T22:25:00.676Z,102567.25
2023-05-19T22:27:27.191Z,102570.75
2023-05-19T22:29:53.652Z,102574.66
2023-05-19T22:32:20.212Z,102574.72
2023-05-19T22:34:46.804Z,102576.28
2023-05-19T22:37:13.621Z,102582.88
2023-05-19T22:39:40.138Z,102580.66
2023-05-19T22:42:06.707Z,102570.03
2023-05-19T22:44:33.162Z,102574.69
2023-05-19T22:46:59.720Z,102578.94
2023-05-19T22:49:27.372Z,102581.34
2023-05-19T22:51:53.921Z,102576.50
2023-05-19T22:54:20.606Z,102579.97
2023-05-19T22:56:48.695Z,102573.94
2023-05-19T22:59:17.710Z,102579.81
2023-05-19T23:01:46.416Z,102574.53
2023-05-19T23:04:13.816Z,102577.28
2023-05-19T23:06:40.446Z,102580.06
2023-05-19T23:09:06.969Z,102577.84
2023-05-19T23:11:34.257Z,102581.34
2023-05-19T23:14:00.796Z,102575.31
2023-05-19T23:16:27.380Z,102575.38
2023-05-19T23:18:53.966Z,102566.25
2023-05-19T23:21:20.547Z,102570.50
2023-05-19T23:23:47.041Z,102577.06
2023-05-19T23:26:13.798Z,102580.19
2023-05-19T23:28:42.166Z,102573.38
2023-05-19T23:31:09.284Z,102579.94
2023-05-19T23:33:35.853Z,102573.91
2023-05-19T23:36:07.617Z,102569.38
2023-05-19T23:38:34.284Z,102568.28
2023-05-19T23:41:00.910Z,102573.31
2023-05-19T23:43:27.494Z,102569.94
2023-05-19T23:45:54.052Z,102566.22
2023-05-19T23:48:20.895Z,102568.19
2023-05-19T23:50:47.456Z,102558.28
2023-05-19T23:53:14.438Z,102562.16
2023-05-19T23:55:41.065Z,102567.13
2023-05-19T23:58:07.566Z,102562.59
